Portada
METAR-TAF:

METAR-TAF

Aeroports :

Bombai, Índia

latitud: 19-05-53N, longitud: 072-50-02E, altitud: 4 m

Observació

L'informe es va fer fa 6 hores i 49 minuts, a les 12:30 UTC
Vent 10 kt del Oest
Temperatura 28°C
Humitat 84%
Pressió 999 hPa
Visibilitat: 2500 m
Núvols disperses a una alçada de 1800 ft
Escasses núvols a una alçada de 2500 ft, Cumulus congestus.
Cel ennuvolat a una alçada de 9000 ft
calitja

METAR: VAJJ 231230Z 26010KT 2500 HZ SCT018 FEW025TCU BKN090 28/25 Q0999 NOSIG

Hora: 00:49 (19:19 UTC)


TAF: manca

Observacions i pronòstics meteorològics de més de 4000 aeroports (METAR i TAF).

Les estacions disponibles són els punts grocs i vermells al mapa.

Posi el ratolí al punt desitjat per veure el nom de l'estació.

Feu clic per veure les observacions i els pronòstics meteorològics.

Per canviar el mapa: feu clic els botons verds amb una creu de color negre per apropar; al botó verd amb un guió per allunyar la imatge; o en les fletxes verdes per a mapes adjacents.


METAR-TAF: